Time;durP1;ratioP1;P1;durP2;ratioP2;P2;SDS_P1;SDS_P2;PMS_P1;PMS_P2;Temp;Humidity;BMP_temperature;BMP_pressure;BME280_temperature;BME280_humidity;BME280_pressure;Samples;Min_cycle;Max_cycle;Signal;HPM_P1;HPM_P2
2022/04/07 00:01:00;;;;;;;10.57;5.32;;;9.70;99.90;;;;;;5073812;28;20031;-68
2022/04/07 00:03:25;;;;;;;7.47;4.00;;;9.70;99.90;;;;;;5073788;28;20024;-69
2022/04/07 00:05:51;;;;;;;5.38;3.67;;;9.70;99.90;;;;;;5073822;28;20025;-69
2022/04/07 00:08:16;;;;;;;6.32;4.07;;;9.80;99.90;;;;;;5073642;28;20031;-68
2022/04/07 00:10:42;;;;;;;4.78;3.58;;;9.70;99.90;;;;;;5073596;28;20399;-68
2022/04/07 00:13:08;;;;;;;9.52;4.88;;;9.70;99.90;;;;;;5073523;28;20071;-68
2022/04/07 00:15:33;;;;;;;9.05;4.32;;;9.60;99.90;;;;;;5072250;28;20528;-68
2022/04/07 00:17:59;;;;;;;7.70;4.43;;;9.60;99.90;;;;;;5073473;28;20027;-69
2022/04/07 00:20:26;;;;;;;6.57;3.85;;;9.60;99.90;;;;;;5072209;28;20029;-68
2022/04/07 00:22:53;;;;;;;6.05;4.32;;;9.60;99.90;;;;;;5072404;28;20025;-68
2022/04/07 00:25:18;;;;;;;7.50;4.03;;;9.60;99.90;;;;;;5072278;28;20024;-68
2022/04/07 00:27:44;;;;;;;4.55;3.78;;;9.50;99.90;;;;;;5073426;28;20020;-68
2022/04/07 00:30:13;;;;;;;7.07;3.72;;;9.60;99.90;;;;;;5072157;28;20029;-68
2022/04/07 00:32:42;;;;;;;7.18;3.95;;;9.60;99.90;;;;;;5072233;28;20390;-68
2022/04/07 00:35:08;;;;;;;6.50;3.78;;;9.60;99.90;;;;;;5055336;28;20490;-68
2022/04/07 00:37:34;;;;;;;9.63;3.72;;;9.70;99.90;;;;;;5073348;28;20017;-68
2022/04/07 00:40:00;;;;;;;4.53;3.53;;;9.70;99.90;;;;;;5072082;28;20043;-68
2022/04/07 00:42:25;;;;;;;4.20;3.40;;;9.70;99.90;;;;;;5073321;28;20077;-68
2022/04/07 00:44:51;;;;;;;5.78;3.85;;;9.70;99.90;;;;;;5071934;28;20020;-68
2022/04/07 00:47:18;;;;;;;5.25;3.45;;;9.70;99.90;;;;;;5071991;28;20398;-69
2022/04/07 00:49:43;;;;;;;6.88;3.60;;;9.70;99.90;;;;;;5073056;28;20074;-68
2022/04/07 00:52:09;;;;;;;6.20;3.10;;;9.70;99.90;;;;;;5073316;28;20024;-68
2022/04/07 00:54:35;;;;;;;5.30;2.92;;;9.70;99.90;;;;;;5072860;28;20076;-68
2022/04/07 00:57:01;;;;;;;3.85;3.00;;;9.60;99.90;;;;;;5073158;28;20016;-68
2022/04/07 00:59:27;;;;;;;6.70;3.15;;;9.60;99.90;;;;;;5073130;28;20052;-68
2022/04/07 01:01:53;;;;;;;3.90;2.90;;;9.60;99.90;;;;;;5072004;28;20017;-68
2022/04/07 01:04:19;;;;;;;7.57;2.85;;;9.60;99.90;;;;;;5071849;28;20027;-69
2022/04/07 01:06:47;;;;;;;6.82;3.10;;;9.60;99.90;;;;;;5072994;28;20497;-68
2022/04/07 01:09:14;;;;;;;5.32;2.40;;;9.60;99.90;;;;;;5055364;28;20043;-68
2022/04/07 01:11:41;;;;;;;8.18;2.90;;;9.60;99.90;;;;;;5073013;28;20031;-68
2022/04/07 01:14:07;;;;;;;4.95;2.63;;;9.60;99.90;;;;;;5071682;28;20016;-68
2022/04/07 01:16:34;;;;;;;6.95;2.50;;;9.60;99.90;;;;;;5071798;28;20012;-68
2022/04/07 01:19:00;;;;;;;5.57;2.42;;;9.60;99.90;;;;;;5072974;28;20062;-68
2022/04/07 01:21:27;;;;;;;5.05;2.53;;;9.60;99.90;;;;;;5054855;28;20021;-69
2022/04/07 01:24:10;;;;;;;2.70;2.33;;;9.70;99.90;;;;;;5054905;28;20021;-68
2022/04/07 01:26:38;;;;;;;6.38;2.50;;;9.70;99.90;;;;;;5071545;28;20047;-68
2022/04/07 01:29:05;;;;;;;3.92;2.22;;;9.80;99.90;;;;;;5072822;28;20456;-68
2022/04/07 01:31:31;;;;;;;6.53;2.70;;;9.80;99.90;;;;;;5055097;28;20390;-68
2022/04/07 01:33:58;;;;;;;5.53;2.20;;;9.80;99.90;;;;;;5072860;28;20028;-68
2022/04/07 01:36:28;;;;;;;6.45;2.53;;;9.80;99.90;;;;;;5072779;28;20486;-68
2022/04/07 01:38:56;;;;;;;6.35;2.03;;;9.80;99.90;;;;;;5072788;28;20052;-68
2022/04/07 01:41:22;;;;;;;4.45;2.10;;;9.80;99.90;;;;;;5071456;28;20399;-68
2022/04/07 01:43:50;;;;;;;4.47;2.38;;;9.80;99.90;;;;;;5071372;28;20032;-68
2022/04/07 01:46:16;;;;;;;3.13;2.00;;;9.80;99.90;;;;;;5072591;28;20031;-68
2022/04/07 01:48:43;;;;;;;5.40;2.13;;;9.80;99.90;;;;;;5071336;28;20423;-68
2022/04/07 01:51:10;;;;;;;6.20;2.28;;;9.80;99.90;;;;;;5054570;28;20474;-69
2022/04/07 01:53:37;;;;;;;3.53;2.38;;;9.80;99.90;;;;;;5072348;28;20045;-68
2022/04/07 01:56:04;;;;;;;6.57;2.25;;;9.80;99.90;;;;;;5072594;28;20032;-69
2022/04/07 01:58:31;;;;;;;6.28;3.08;;;9.90;99.90;;;;;;5071381;28;20044;-68
2022/04/07 02:00:57;;;;;;;7.35;2.17;;;9.80;99.90;;;;;;5073640;28;20025;-68
2022/04/07 02:03:22;;;;;;;4.75;2.38;;;9.80;99.90;;;;;;5074768;28;20031;-68
2022/04/07 02:05:47;;;;;;;7.55;2.22;;;9.80;99.90;;;;;;5076009;28;20533;-69
2022/04/07 02:08:13;;;;;;;6.50;2.50;;;9.80;99.90;;;;;;5075898;28;20029;-69
2022/04/07 02:10:38;;;;;;;2.75;1.77;;;9.90;99.90;;;;;;5075918;28;20025;-68
2022/04/07 02:13:04;;;;;;;6.57;2.65;;;9.90;99.90;;;;;;5074502;28;20115;-68
2022/04/07 02:15:30;;;;;;;4.95;2.10;;;9.80;99.90;;;;;;5075857;28;20078;-68
2022/04/07 02:17:55;;;;;;;4.22;2.72;;;9.80;99.90;;;;;;5075770;28;20035;-68
2022/04/07 02:20:21;;;;;;;4.65;2.35;;;9.90;99.90;;;;;;5057895;28;20021;-68
2022/04/07 02:22:46;;;;;;;5.65;2.25;;;9.90;99.90;;;;;;5075732;28;20020;-69
2022/04/07 02:25:12;;;;;;;4.43;2.10;;;9.90;99.90;;;;;;5075717;28;20393;-68
2022/04/07 02:27:40;;;;;;;3.00;2.30;;;9.90;99.90;;;;;;5075683;28;20048;-68
2022/04/07 02:30:08;;;;;;;8.82;2.45;;;9.90;99.90;;;;;;5075690;28;20089;-68
2022/04/07 02:32:34;;;;;;;4.88;2.28;;;9.90;99.90;;;;;;5075601;28;20408;-68
2022/04/07 02:35:00;;;;;;;6.63;2.30;;;9.90;99.90;;;;;;5074344;28;20021;-68
2022/04/07 02:37:25;;;;;;;6.65;2.00;;;9.90;99.90;;;;;;5075591;28;20441;-68
2022/04/07 02:39:52;;;;;;;4.25;1.88;;;9.90;99.90;;;;;;5075494;28;20086;-68
2022/04/07 02:42:18;;;;;;;5.18;2.33;;;9.90;99.90;;;;;;5075413;28;20077;-69
2022/04/07 02:44:44;;;;;;;6.78;2.10;;;10.00;99.90;;;;;;5075386;28;20052;-68
2022/04/07 02:47:09;;;;;;;6.15;1.80;;;10.00;99.90;;;;;;5075332;28;20033;-68
2022/04/07 02:49:35;;;;;;;5.70;2.50;;;9.90;99.90;;;;;;5074105;28;20492;-68
2022/04/07 02:52:00;;;;;;;4.18;2.03;;;10.00;99.90;;;;;;5075232;28;20024;-68
2022/04/07 02:54:26;;;;;;;4.60;2.15;;;9.90;99.90;;;;;;5073660;28;20406;-68
2022/04/07 02:56:51;;;;;;;5.78;2.30;;;9.80;99.90;;;;;;5057134;28;20103;-68
2022/04/07 02:59:17;;;;;;;4.35;2.53;;;9.80;99.90;;;;;;5075001;28;20028;-68
2022/04/07 03:01:43;;;;;;;5.72;2.00;;;9.80;99.90;;;;;;5073877;28;20588;-68
2022/04/07 03:04:09;;;;;;;6.93;1.90;;;9.80;99.90;;;;;;5074986;28;20154;-68
2022/04/07 03:06:34;;;;;;;9.32;2.25;;;9.80;99.90;;;;;;5074991;28;20062;-68
2022/04/07 03:09:00;;;;;;;6.03;2.35;;;9.80;99.90;;;;;;5073674;28;20020;-68
2022/04/07 03:11:26;;;;;;;9.77;2.65;;;9.80;99.90;;;;;;5074947;28;20025;-68
2022/04/07 03:13:52;;;;;;;6.57;2.25;;;9.80;99.90;;;;;;5074757;28;20093;-67
2022/04/07 03:16:17;;;;;;;7.47;2.20;;;9.80;99.90;;;;;;5074687;28;20060;-68
2022/04/07 03:18:43;;;;;;;4.07;2.20;;;9.80;99.90;;;;;;5074678;28;20360;-68
2022/04/07 03:21:08;;;;;;;7.57;2.22;;;9.80;99.90;;;;;;5056662;28;20032;-68
2022/04/07 03:23:34;;;;;;;5.97;2.30;;;9.80;99.90;;;;;;5074593;28;20098;-69
2022/04/07 03:26:01;;;;;;;3.95;1.95;;;9.70;99.90;;;;;;5074673;28;20394;-68
2022/04/07 03:28:26;;;;;;;5.82;2.55;;;9.80;99.90;;;;;;5074430;28;20046;-68
2022/04/07 03:30:52;;;;;;;4.80;2.22;;;9.70;99.90;;;;;;5073236;28;20099;-68
2022/04/07 03:33:17;;;;;;;5.15;2.65;;;9.80;99.90;;;;;;5073064;28;20115;-69
2022/04/07 03:35:42;;;;;;;4.03;2.03;;;9.80;99.90;;;;;;5073097;28;20029;-69
2022/04/07 03:38:08;;;;;;;4.95;2.38;;;9.70;99.90;;;;;;5074218;28;20017;-69
2022/04/07 03:40:35;;;;;;;7.00;2.50;;;9.60;99.90;;;;;;5074232;28;20025;-68
2022/04/07 03:43:01;;;;;;;7.45;2.70;;;9.60;99.90;;;;;;5074134;28;20506;-68
2022/04/07 03:45:26;;;;;;;4.75;2.17;;;9.60;99.90;;;;;;5074152;28;20020;-68
2022/04/07 03:47:52;;;;;;;4.95;2.70;;;9.60;99.90;;;;;;5056380;28;20040;-68
2022/04/07 03:50:18;;;;;;;3.80;2.15;;;9.60;99.90;;;;;;5074029;28;20016;-69
2022/04/07 03:52:43;;;;;;;5.82;2.40;;;9.70;99.90;;;;;;5072555;28;20416;-69
2022/04/07 03:55:09;;;;;;;5.18;2.10;;;9.70;99.90;;;;;;5073813;28;20039;-69
2022/04/07 03:57:35;;;;;;;7.05;2.28;;;9.70;99.90;;;;;;5056045;28;20028;-68
2022/04/07 04:00:01;;;;;;;5.05;2.30;;;9.70;99.90;;;;;;5073886;28;20070;-68
2022/04/07 04:02:26;;;;;;;5.18;2.33;;;9.80;99.90;;;;;;5073756;28;20031;-69
2022/04/07 04:04:52;;;;;;;4.30;2.05;;;9.80;99.90;;;;;;5072556;28;20497;-69
2022/04/07 04:07:17;;;;;;;7.18;1.95;;;9.80;99.90;;;;;;5073660;28;20031;-69
2022/04/07 04:09:45;;;;;;;7.20;2.35;;;9.80;99.90;;;;;;5073662;28;20076;-68
2022/04/07 04:12:10;;;;;;;6.60;2.15;;;9.90;99.90;;;;;;5073693;28;20034;-68
2022/04/07 04:14:36;;;;;;;6.30;2.05;;;9.90;99.90;;;;;;5073545;28;20028;-69
2022/04/07 04:17:02;;;;;;;6.07;2.20;;;9.90;99.90;;;;;;5072479;28;20432;-68
2022/04/07 04:19:28;;;;;;;8.98;2.72;;;9.90;99.90;;;;;;5073555;28;20020;-69
2022/04/07 04:21:54;;;;;;;3.15;1.77;;;10.00;99.90;;;;;;5072446;28;20390;-69
2022/04/07 04:24:19;;;;;;;6.88;2.30;;;10.00;99.90;;;;;;5055127;28;20021;-68
2022/04/07 04:26:45;;;;;;;11.00;3.25;;;10.00;99.90;;;;;;5073436;28;20032;-68
2022/04/07 04:29:10;;;;;;;10.07;2.38;;;10.00;99.90;;;;;;5073466;28;20029;-68
2022/04/07 04:31:36;;;;;;;9.00;2.42;;;10.10;99.90;;;;;;5073427;28;20051;-68
2022/04/07 04:34:01;;;;;;;5.53;2.33;;;10.10;99.90;;;;;;5073352;28;20109;-69
2022/04/07 04:36:28;;;;;;;6.35;1.98;;;10.00;99.90;;;;;;5072058;28;20020;-68
2022/04/07 04:38:54;;;;;;;8.77;2.00;;;10.10;99.90;;;;;;5073429;28;20020;-68
2022/04/07 04:41:19;;;;;;;4.80;2.30;;;10.20;99.90;;;;;;5073250;28;20395;-68
2022/04/07 04:43:45;;;;;;;6.15;1.63;;;10.10;99.90;;;;;;5073301;28;20029;-69
2022/04/07 04:46:10;;;;;;;11.18;2.10;;;10.10;99.90;;;;;;5073243;28;20017;-68
2022/04/07 04:48:38;;;;;;;4.65;1.58;;;10.20;99.90;;;;;;5072053;28;20028;-68
2022/04/07 04:51:04;;;;;;;12.57;1.80;;;10.30;99.90;;;;;;5073165;28;20024;-69
2022/04/07 04:53:29;;;;;;;11.52;2.28;;;10.30;99.90;;;;;;5072915;28;20494;-69
2022/04/07 04:55:55;;;;;;;7.72;1.70;;;10.30;99.90;;;;;;5073217;28;20035;-68
2022/04/07 04:58:20;;;;;;;7.15;1.80;;;10.30;99.90;;;;;;5073084;28;20024;-68
2022/04/07 05:00:46;;;;;;;4.40;1.80;;;10.30;99.90;;;;;;5071884;28;20519;-68
2022/04/07 05:03:12;;;;;;;6.85;1.70;;;10.30;99.90;;;;;;5071688;28;20372;-69
2022/04/07 05:05:37;;;;;;;6.75;1.52;;;10.30;99.90;;;;;;5073099;28;20471;-69
2022/04/07 05:08:03;;;;;;;4.07;1.80;;;10.30;99.90;;;;;;5072976;28;20028;-69
2022/04/07 05:10:28;;;;;;;3.58;1.38;;;10.30;99.90;;;;;;5073062;28;20020;-70
2022/04/07 05:12:54;;;;;;;10.05;1.60;;;10.30;99.90;;;;;;5071672;28;20017;-69
2022/04/07 05:15:20;;;;;;;8.25;2.00;;;10.40;99.90;;;;;;5071644;28;20471;-69
2022/04/07 05:17:49;;;;;;;4.93;1.50;;;10.40;99.90;;;;;;5072809;28;20104;-69
2022/04/07 05:20:15;;;;;;;5.63;1.77;;;10.40;99.90;;;;;;5072873;28;20074;-69
2022/04/07 05:22:41;;;;;;;9.35;2.45;;;10.40;99.90;;;;;;5071680;28;20027;-68
2022/04/07 05:25:07;;;;;;;8.40;2.03;;;10.40;99.90;;;;;;5071669;28;20033;-68
2022/04/07 05:27:35;;;;;;;4.50;2.42;;;10.10;99.90;;;;;;5071644;28;20029;-69
2022/04/07 05:30:00;;;;;;;6.55;2.65;;;10.00;99.90;;;;;;5055111;28;20033;-68
2022/04/07 05:32:26;;;;;;;7.10;2.85;;;9.80;99.90;;;;;;5072742;28;20522;-68
2022/04/07 05:34:51;;;;;;;6.38;3.33;;;9.70;99.90;;;;;;5071221;28;20447;-68
2022/04/07 05:37:17;;;;;;;7.88;3.70;;;9.60;99.90;;;;;;5074856;28;20017;-69
2022/04/07 05:39:43;;;;;;;8.85;4.30;;;9.50;99.90;;;;;;5076571;28;20386;-68
2022/04/07 05:42:08;;;;;;;7.57;3.50;;;9.40;99.90;;;;;;5076479;28;20029;-69
2022/04/07 05:44:34;;;;;;;6.85;3.60;;;9.30;99.90;;;;;;5076432;28;20525;-68
2022/04/07 05:46:59;;;;;;;7.35;3.92;;;9.20;99.90;;;;;;5076303;28;20073;-69
2022/04/07 05:49:25;;;;;;;6.28;2.97;;;9.10;99.90;;;;;;5076409;28;20493;-69
2022/04/07 05:51:54;;;;;;;5.72;2.85;;;9.00;99.90;;;;;;5074898;28;20028;-69
2022/04/07 05:54:20;;;;;;;7.97;2.85;;;9.10;99.90;;;;;;5074622;28;20499;-68
2022/04/07 05:56:46;;;;;;;5.45;2.45;;;9.10;99.90;;;;;;5074998;28;20023;-68
2022/04/07 05:59:12;;;;;;;2.85;2.15;;;9.10;99.90;;;;;;5074864;28;20094;-69
2022/04/07 06:01:37;;;;;;;3.65;2.40;;;9.10;99.90;;;;;;5074922;28;20024;-69
2022/04/07 06:04:03;;;;;;;6.32;2.47;;;9.10;99.90;;;;;;5076100;28;20082;-70
2022/04/07 06:06:28;;;;;;;8.20;3.22;;;9.10;99.90;;;;;;5074536;28;20111;-69
2022/04/07 06:08:54;;;;;;;2.55;1.98;;;9.20;99.90;;;;;;5075892;28;20036;-69
2022/04/07 06:11:20;;;;;;;5.95;2.40;;;9.20;99.90;;;;;;5074208;28;20051;-70
2022/04/07 06:13:46;;;;;;;2.58;1.95;;;9.20;99.90;;;;;;5075000;28;20032;-69
2022/04/07 06:16:11;;;;;;;4.45;2.50;;;9.30;99.90;;;;;;5071868;28;20025;-69
2022/04/07 06:18:37;;;;;;;2.10;1.67;;;9.40;99.90;;;;;;5057077;28;20402;-69
2022/04/07 06:21:02;;;;;;;5.18;1.60;;;9.40;99.90;;;;;;5074728;28;20509;-69
2022/04/07 06:23:28;;;;;;;2.85;1.60;;;9.50;99.90;;;;;;5075179;28;20036;-69
2022/04/07 06:25:54;;;;;;;2.60;1.60;;;9.60;99.90;;;;;;5057067;28;20036;-69
2022/04/07 06:28:22;;;;;;;1.63;1.40;;;9.70;99.90;;;;;;5074495;28;20029;-70
2022/04/07 06:30:48;;;;;;;2.58;1.30;;;9.80;99.90;;;;;;5073986;28;20029;-69
2022/04/07 06:33:14;;;;;;;2.42;1.50;;;10.00;99.90;;;;;;5072607;28;20368;-69
2022/04/07 06:35:39;;;;;;;1.95;1.23;;;10.30;99.90;;;;;;5073694;28;20028;-69
2022/04/07 06:38:05;;;;;;;1.92;1.40;;;10.40;99.90;;;;;;5073210;28;20033;-69
2022/04/07 06:40:31;;;;;;;1.88;1.52;;;10.30;99.90;;;;;;5073463;28;20028;-69
2022/04/07 06:42:58;;;;;;;2.05;1.50;;;10.30;99.90;;;;;;5073341;28;20023;-69
2022/04/07 06:45:26;;;;;;;2.55;1.30;;;10.30;99.90;;;;;;5073548;28;20017;-69
2022/04/07 06:47:52;;;;;;;3.30;1.80;;;10.30;99.90;;;;;;5072968;28;20074;-69
2022/04/07 06:50:19;;;;;;;2.55;1.83;;;10.20;99.90;;;;;;5056852;28;20020;-70
2022/04/07 06:52:45;;;;;;;3.00;1.60;;;10.20;99.90;;;;;;5074199;28;20021;-68
2022/04/07 06:55:12;;;;;;;2.53;1.55;;;10.10;99.90;;;;;;5054915;28;20100;-69
2022/04/07 06:57:55;;;;;;;2.85;1.52;;;10.10;99.90;;;;;;5071848;28;20031;-69
2022/04/07 07:00:24;;;;;;;2.85;1.90;;;10.00;99.90;;;;;;5075721;28;20024;-69
2022/04/07 07:02:52;;;;;;;2.88;2.38;;;10.10;99.90;;;;;;5084107;28;20086;-68
2022/04/07 07:05:19;;;;;;;1.92;1.52;;;10.00;99.90;;;;;;5079892;28;20028;-69
2022/04/07 07:07:44;;;;;;;2.47;1.50;;;10.00;99.90;;;;;;5082843;28;20435;-69
2022/04/07 07:10:11;;;;;;;3.10;1.67;;;10.00;99.90;;;;;;5079868;28;20040;-68
2022/04/07 07:12:36;;;;;;;3.80;1.45;;;10.00;99.90;;;;;;5073446;28;20395;-69
2022/04/07 07:15:04;;;;;;;4.95;1.60;;;10.00;99.90;;;;;;5087544;28;20055;-69
2022/04/07 07:17:33;;;;;;;1.80;1.58;;;10.10;99.90;;;;;;5075210;28;20382;-69
2022/04/07 07:20:01;;;;;;;3.83;1.67;;;10.20;99.90;;;;;;5074016;28;20032;-68
2022/04/07 07:22:27;;;;;;;4.53;1.40;;;10.30;99.90;;;;;;5074566;28;20016;-68
2022/04/07 07:24:52;;;;;;;1.40;1.30;;;10.30;99.90;;;;;;5073618;28;20032;-69
2022/04/07 07:27:18;;;;;;;2.33;1.30;;;10.20;99.90;;;;;;5075670;28;20020;-69
2022/04/07 07:29:43;;;;;;;2.75;1.80;;;10.20;99.90;;;;;;5073817;28;20467;-69
2022/04/07 07:32:09;;;;;;;1.58;1.20;;;10.20;99.90;;;;;;5082813;28;20024;-69
2022/04/07 07:34:34;;;;;;;1.80;1.23;;;10.10;99.90;;;;;;5074364;28;20029;-69
2022/04/07 07:37:00;;;;;;;3.17;1.40;;;10.00;99.90;;;;;;5082588;28;20023;-70
2022/04/07 07:39:26;;;;;;;2.42;1.38;;;10.00;99.90;;;;;;5074050;28;20048;-68
2022/04/07 07:41:51;;;;;;;3.15;2.00;;;9.90;99.90;;;;;;5074049;28;20457;-69
2022/04/07 07:44:17;;;;;;;3.10;1.60;;;9.90;99.90;;;;;;5073418;28;20033;-69
2022/04/07 07:46:43;;;;;;;2.22;1.40;;;9.90;99.90;;;;;;5075907;28;20380;-69
2022/04/07 07:49:09;;;;;;;1.52;1.13;;;9.90;99.90;;;;;;5073581;28;20021;-69
2022/04/07 07:51:36;;;;;;;2.97;1.30;;;9.90;99.90;;;;;;5074496;28;20032;-68
2022/04/07 07:54:01;;;;;;;1.35;1.23;;;9.80;99.90;;;;;;5073416;28;20067;-69
2022/04/07 07:56:26;;;;;;;1.77;1.40;;;9.80;99.90;;;;;;5072195;28;20052;-70
2022/04/07 07:58:52;;;;;;;2.05;1.65;;;9.80;99.90;;;;;;5053871;28;20390;-69
2022/04/07 08:01:17;;;;;;;2.05;1.73;;;9.70;99.90;;;;;;5073116;28;20020;-69
2022/04/07 08:03:43;;;;;;;4.13;1.42;;;9.70;99.90;;;;;;5073125;28;20032;-69
2022/04/07 08:06:08;;;;;;;3.80;1.92;;;9.80;99.90;;;;;;5071590;28;20043;-69
2022/04/07 08:08:34;;;;;;;2.65;1.70;;;9.70;99.90;;;;;;5071895;28;20108;-70
2022/04/07 08:10:59;;;;;;;5.53;1.65;;;9.70;99.90;;;;;;5072964;28;20471;-69
2022/04/07 08:13:25;;;;;;;3.03;1.80;;;9.60;99.90;;;;;;5072669;28;20045;-69
2022/04/07 08:15:50;;;;;;;1.77;1.25;;;9.70;99.90;;;;;;5071883;28;20050;-69
2022/04/07 08:18:16;;;;;;;2.50;1.88;;;9.70;99.90;;;;;;5071799;28;20028;-68
2022/04/07 08:20:42;;;;;;;1.65;1.50;;;9.80;99.90;;;;;;5072654;28;20097;-69
2022/04/07 08:23:08;;;;;;;2.13;1.40;;;9.80;99.90;;;;;;5071023;28;20028;-70
2022/04/07 08:25:33;;;;;;;1.92;1.30;;;9.80;99.90;;;;;;5071052;28;20505;-69
2022/04/07 08:27:59;;;;;;;2.58;1.30;;;9.80;99.90;;;;;;5072520;28;20032;-69
2022/04/07 08:30:25;;;;;;;2.05;1.42;;;9.90;99.90;;;;;;5072516;28;20482;-69
2022/04/07 08:32:50;;;;;;;1.52;1.15;;;9.90;99.90;;;;;;5072639;28;20453;-69
2022/04/07 08:35:16;;;;;;;2.38;1.30;;;9.90;99.90;;;;;;5071068;28;20107;-69
2022/04/07 08:37:41;;;;;;;2.33;1.00;;;9.80;99.90;;;;;;5072167;28;20034;-69
2022/04/07 08:40:07;;;;;;;2.33;1.10;;;9.70;99.90;;;;;;5054322;28;20020;-69
2022/04/07 08:42:35;;;;;;;1.63;1.15;;;9.70;99.90;;;;;;5072359;28;20475;-70
2022/04/07 08:45:01;;;;;;;1.35;1.17;;;9.70;99.90;;;;;;5071941;28;20451;-69
2022/04/07 08:47:26;;;;;;;1.42;0.90;;;9.80;99.90;;;;;;5072372;28;20044;-70
2022/04/07 08:49:52;;;;;;;1.33;0.90;;;10.00;99.90;;;;;;5054436;28;20487;-70
2022/04/07 08:52:18;;;;;;;1.58;1.00;;;10.10;99.90;;;;;;5070894;28;20032;-69
2022/04/07 08:54:45;;;;;;;1.85;0.93;;;10.10;99.90;;;;;;5071114;28;20512;-69
2022/04/07 08:57:10;;;;;;;1.98;0.90;;;10.20;99.90;;;;;;5071061;28;20115;-69
2022/04/07 08:59:36;;;;;;;1.42;1.05;;;10.20;99.90;;;;;;5072752;28;20063;-69
2022/04/07 09:02:04;;;;;;;0.93;0.80;;;10.30;99.90;;;;;;5073609;28;20024;-69
2022/04/07 09:04:31;;;;;;;3.42;0.60;;;10.50;99.90;;;;;;5071206;28;20028;-68
2022/04/07 09:06:58;;;;;;;1.73;0.88;;;10.50;99.90;;;;;;5054447;28;20028;-69
2022/04/07 09:09:23;;;;;;;2.70;1.00;;;10.50;99.90;;;;;;5080715;28;20382;-69
2022/04/07 09:11:56;;;;;;;1.13;0.60;;;10.40;99.90;;;;;;5087156;28;20085;-68
2022/04/07 09:14:22;;;;;;;2.03;0.73;;;10.40;99.90;;;;;;5079753;28;20108;-69
2022/04/07 09:16:54;;;;;;;1.45;0.70;;;10.40;99.90;;;;;;5076037;28;20025;-69
2022/04/07 09:19:22;;;;;;;1.00;0.73;;;10.30;99.90;;;;;;5086852;28;20023;-69
2022/04/07 09:22:09;;;;;;;0.90;0.50;;;10.30;99.90;;;;;;5103490;28;20036;-70
2022/04/07 09:24:37;;;;;;;0.60;0.60;;;10.40;99.90;;;;;;5075766;28;20398;-69
2022/04/07 09:27:04;;;;;;;0.70;0.70;;;10.40;99.90;;;;;;5058247;28;20112;-70
2022/04/07 09:29:40;;;;;;;1.25;0.70;;;10.50;99.90;;;;;;5075929;28;20497;-70
2022/04/07 09:32:17;;;;;;;1.00;0.82;;;10.50;99.90;;;;;;5080563;28;20028;-69
2022/04/07 09:34:58;;;;;;;0.52;0.52;;;10.70;99.90;;;;;;5074918;28;20033;-70
2022/04/07 09:37:26;;;;;;;1.00;0.90;;;10.70;99.90;;;;;;5074237;28;20424;-70
2022/04/07 09:40:12;;;;;;;2.08;0.60;;;10.70;99.90;;;;;;5075949;28;20498;-69
2022/04/07 09:42:40;;;;;;;0.75;0.60;;;10.70;99.90;;;;;;5058010;28;20111;-69
2022/04/07 09:45:11;;;;;;;10.02;1.88;;;10.60;99.90;;;;;;5076340;28;20025;-69
2022/04/07 09:47:46;;;;;;;2.08;0.93;;;10.50;99.90;;;;;;5058083;28;20554;-67
2022/04/07 09:50:30;;;;;;;1.65;0.80;;;8.80;99.90;;;;;;5070474;28;20021;-68
2022/04/07 09:53:12;;;;;;;3.05;0.77;;;8.30;99.90;;;;;;5076355;28;20049;-68
2022/04/07 09:55:40;;;;;;;0.70;0.70;;;8.10;99.90;;;;;;5072963;28;20111;-69
2022/04/07 09:58:08;;;;;;;3.20;1.00;;;7.90;99.90;;;;;;5073275;28;20112;-68
2022/04/07 10:00:35;;;;;;;4.15;1.20;;;7.90;99.90;;;;;;5074923;28;20394;-69
2022/04/07 10:03:02;;;;;;;3.15;1.10;;;8.00;99.90;;;;;;5074363;28;20074;-69
2022/04/07 10:05:29;;;;;;;1.30;0.88;;;8.00;99.90;;;;;;5056942;28;20537;-69
2022/04/07 10:07:57;;;;;;;0.95;0.70;;;7.90;99.90;;;;;;5070665;28;20118;-69
2022/04/07 10:10:23;;;;;;;1.23;0.70;;;7.90;99.90;;;;;;5075071;28;20085;-69
2022/04/07 10:12:50;;;;;;;2.78;0.60;;;8.00;99.90;;;;;;5072814;28;20096;-69
2022/04/07 10:15:17;;;;;;;1.35;0.70;;;8.00;99.90;;;;;;5073040;28;20551;-69
2022/04/07 10:17:43;;;;;;;1.15;0.90;;;8.00;99.90;;;;;;5064237;28;20487;-69
2022/04/07 10:20:11;;;;;;;2.00;1.48;;;7.90;99.90;;;;;;5075292;28;20025;-71
2022/04/07 10:23:05;;;;;;;1.50;1.40;;;8.10;99.90;;;;;;5072608;28;20115;-69
2022/04/07 10:25:32;;;;;;;3.70;1.70;;;8.20;99.90;;;;;;5057537;28;20444;-70
2022/04/07 10:28:04;;;;;;;5.28;1.40;;;8.40;99.90;;;;;;5073225;28;20123;-69
2022/04/07 10:30:30;;;;;;;3.20;1.40;;;8.60;99.90;;;;;;5073608;28;20031;-69
2022/04/07 10:32:58;;;;;;;2.88;1.52;;;8.60;99.90;;;;;;5057290;28;20505;-69
2022/04/07 10:38:10;;;;;;;5.78;1.70;;;8.60;99.90;;;;;;5104309;27;20445;-69
2022/04/07 10:40:51;;;;;;;2.60;1.00;;;9.10;99.90;;;;;;5092156;28;20387;-69
2022/04/07 10:43:21;;;;;;;3.17;1.40;;;9.30;99.90;;;;;;5089308;28;20436;-70
2022/04/07 10:45:49;;;;;;;2.88;1.50;;;9.40;99.90;;;;;;5081485;28;20467;-70
2022/04/07 10:48:21;;;;;;;2.42;1.77;;;9.60;99.90;;;;;;5088948;28;20031;-70
2022/04/07 10:50:50;;;;;;;2.95;1.52;;;9.60;99.90;;;;;;5070319;28;20036;-70
2022/04/07 10:53:25;;;;;;;2.53;1.75;;;9.50;99.90;;;;;;5083714;28;20033;-69
2022/04/07 10:55:54;;;;;;;5.25;1.95;;;9.50;99.90;;;;;;5102592;28;20027;-69
2022/04/07 10:58:20;;;;;;;2.03;1.80;;;9.60;99.90;;;;;;5085924;28;20031;-69
2022/04/07 11:00:46;;;;;;;3.35;2.17;;;9.70;99.90;;;;;;5076002;28;20043;-69
2022/04/07 11:03:14;;;;;;;4.60;2.65;;;9.80;99.90;;;;;;5073841;28;20028;-69
2022/04/07 11:05:52;;;;;;;3.85;2.97;;;10.10;99.90;;;;;;5092495;28;20025;-69
2022/04/07 11:08:21;;;;;;;3.55;2.97;;;10.50;99.90;;;;;;5088719;28;20546;-69
2022/04/07 11:10:48;;;;;;;3.63;2.60;;;10.90;99.90;;;;;;5080156;28;20032;-70
2022/04/07 11:13:14;;;;;;;4.93;3.28;;;10.80;99.90;;;;;;5079739;28;20098;-69
2022/04/07 11:16:03;;;;;;;6.25;4.40;;;10.90;99.90;;;;;;5091508;28;20079;-69
2022/04/07 11:21:09;;;;;;;6.22;4.00;;;10.80;99.90;;;;;;5101646;27;20647;-69
2022/04/07 11:23:41;;;;;;;6.78;4.07;;;11.10;99.90;;;;;;5108644;28;20115;-71
2022/04/07 11:26:11;;;;;;;4.13;3.72;;;11.20;99.90;;;;;;5104494;28;20026;-68
2022/04/07 11:28:37;;;;;;;6.72;3.22;;;11.20;99.90;;;;;;5102989;28;20024;-69
2022/04/07 11:31:04;;;;;;;5.00;3.00;;;11.20;99.90;;;;;;5107895;28;20020;-70
2022/04/07 11:33:35;;;;;;;4.78;3.00;;;11.30;99.90;;;;;;5108648;28;20104;-69
2022/04/07 11:36:07;;;;;;;4.75;2.78;;;11.70;99.90;;;;;;5102268;28;20450;-69
2022/04/07 11:38:35;;;;;;;3.83;3.15;;;11.90;99.90;;;;;;5106091;28;20106;-69
2022/04/07 11:41:04;;;;;;;3.63;2.70;;;12.00;99.90;;;;;;5089666;28;20062;-69
2022/04/07 11:43:31;;;;;;;6.03;2.90;;;12.40;99.90;;;;;;5106876;28;20095;-70
2022/04/07 11:45:57;;;;;;;3.80;2.70;;;12.30;99.90;;;;;;5097995;28;20485;-68
2022/04/07 11:48:23;;;;;;;4.28;2.80;;;12.10;99.90;;;;;;5108270;28;20027;-68
2022/04/07 11:50:50;;;;;;;3.47;3.17;;;12.20;99.90;;;;;;5107123;28;20020;-69
2022/04/07 11:53:17;;;;;;;3.25;2.80;;;12.50;99.90;;;;;;5107429;28;20564;-69
2022/04/07 11:55:43;;;;;;;3.65;2.83;;;13.10;99.90;;;;;;5092898;28;20398;-69
2022/04/07 11:58:10;;;;;;;3.33;2.60;;;13.70;99.90;;;;;;5106693;28;20023;-69
2022/04/07 12:00:36;;;;;;;4.85;2.88;;;13.70;99.90;;;;;;5091151;28;20042;-69
2022/04/07 12:03:03;;;;;;;3.70;2.58;;;13.70;99.90;;;;;;5108774;28;20443;-69
2022/04/07 12:05:30;;;;;;;4.28;2.75;;;13.50;99.90;;;;;;5075102;28;20020;-68
2022/04/07 12:07:56;;;;;;;4.70;3.08;;;13.40;99.90;;;;;;5101324;28;20023;-69
2022/04/07 12:10:22;;;;;;;3.22;2.00;;;13.10;99.90;;;;;;5102255;28;20474;-69
2022/04/07 12:12:48;;;;;;;4.95;2.55;;;12.90;99.90;;;;;;5108988;28;20035;-68
2022/04/07 12:15:16;;;;;;;2.72;1.92;;;12.90;99.90;;;;;;5086603;28;20534;-69
2022/04/07 12:18:02;;;;;;;3.95;2.40;;;13.00;99.90;;;;;;5108335;28;20494;-70
2022/04/07 12:20:28;;;;;;;3.33;2.50;;;13.00;99.90;;;;;;5104965;28;20127;-70
2022/04/07 12:23:11;;;;;;;3.90;2.40;;;12.70;99.90;;;;;;5107648;28;20024;-68
2022/04/07 12:25:40;;;;;;;5.07;2.80;;;12.30;99.90;;;;;;5099806;28;20031;-70
2022/04/07 12:28:15;;;;;;;4.28;2.70;;;12.30;99.90;;;;;;5106897;28;20020;-70
2022/04/07 12:30:51;;;;;;;5.65;2.45;;;12.20;99.90;;;;;;5111143;28;20477;-70
2022/04/07 12:33:39;;;;;;;7.43;2.90;;;12.30;99.90;;;;;;5091369;28;20504;-70
2022/04/07 12:36:05;;;;;;;4.88;2.30;;;12.80;99.90;;;;;;5104493;27;20043;-69
2022/04/07 12:38:31;;;;;;;7.07;2.25;;;13.20;99.90;;;;;;5096671;28;20042;-69
2022/04/07 12:41:10;;;;;;;5.00;1.80;;;13.40;99.90;;;;;;5087295;28;20032;-70
2022/04/07 12:43:51;;;;;;;4.72;1.40;;;13.20;99.90;;;;;;5093271;28;20025;-70
2022/04/07 12:46:18;;;;;;;2.67;1.10;;;12.70;99.90;;;;;;5094884;28;20016;-70
2022/04/07 12:49:05;;;;;;;8.80;1.98;;;12.50;99.90;;;;;;5090616;28;20020;-69
2022/04/07 12:51:32;;;;;;;4.65;1.50;;;12.40;99.90;;;;;;5086198;28;20112;-70
2022/04/07 12:54:14;;;;;;;6.88;1.67;;;12.40;99.90;;;;;;5073464;28;20081;-70
2022/04/07 12:56:42;;;;;;;4.57;1.70;;;12.40;99.90;;;;;;5095049;28;20050;-69
2022/04/07 12:59:11;;;;;;;8.75;1.45;;;12.30;99.90;;;;;;5093530;28;20039;-69